| Temperature (°F) | Max | Average | Min |
|---|---|---|---|
| Max Temperature | 89 | 80.97 | 66 |
| Avg Temperature | 80.14 | 72.12 | 57.88 |
| Min Temperature | 75 | 65.39 | 50 |
| Dew Point (°F) | Max | Average | Min |
|---|---|---|---|
| Dew Point | 73 | 61.91 | 24 |
| Precipitation (in) | Max | Average | Min | Sum |
|---|---|---|---|---|
| Precipitation | 0.77 | 0.03 | 0.00 | 1.05 |
| Snowdepth | 0.00 | 0.00 | 0.00 | 0.00 |
| Wind (mph) | Max | Average | Min |
|---|---|---|---|
| Wind | 28 | 8.75 | 0 |
| Gust Wind | 38 | 3.18 | 0 |
| Sea Level Pressure (in) | Max | Average | Min |
|---|---|---|---|
| Sea Level Pressure | 30.49 | 30.11 | 29.78 |
| Date | Temperature (°F) | Dew Point (°F) | Humidity (%) | Wind Speed (mph) | Pressure (in) | Precipitation (in) | ||||||||||
|---|---|---|---|---|---|---|---|---|---|---|---|---|---|---|---|---|
| Max | Avg | Min | Max | Avg | Min | Max | Avg | Min | Max | Avg | Min | Max | Avg | Min | ||
| 3/31/2020 | 85 | 74.3 | 61 | 72 | 62.4 | 48 | 85 | 67.5 | 48 | 21 | 14.7 | 7 | 30.0 | 29.9 | 29.8 | 0.00 |
| 3/30/2020 | 84 | 77.7 | 74 | 70 | 62.3 | 52 | 82 | 60.0 | 44 | 16 | 9.8 | 6 | 30.1 | 30.0 | 29.9 | 0.00 |
| 3/29/2020 | 84 | 78.1 | 73 | 71 | 58.0 | 50 | 87 | 53.0 | 33 | 13 | 8.5 | 5 | 30.1 | 30.1 | 30.0 | 0.00 |
| 3/28/2020 | 88 | 80.1 | 75 | 72 | 70.5 | 69 | 84 | 73.2 | 57 | 16 | 11.5 | 6 | 30.0 | 29.9 | 29.9 | 0.00 |
| 3/27/2020 | 87 | 79.2 | 73 | 72 | 69.0 | 66 | 90 | 72.2 | 53 | 15 | 10.0 | 5 | 29.9 | 29.9 | 29.9 | 0.00 |
| 3/26/2020 | 88 | 75.1 | 69 | 69 | 67.1 | 63 | 93 | 78.0 | 49 | 14 | 6.8 | 0 | 30.0 | 30.0 | 29.9 | 0.00 |
| 3/25/2020 | 89 | 78.0 | 71 | 70 | 66.7 | 60 | 91 | 70.2 | 40 | 10 | 4.9 | 0 | 30.0 | 29.9 | 29.9 | 0.00 |
| 3/24/2020 | 86 | 77.4 | 71 | 70 | 67.3 | 63 | 91 | 72.8 | 49 | 16 | 8.9 | 3 | 30.1 | 30.0 | 29.9 | 0.00 |
| 3/23/2020 | 88 | 76.8 | 70 | 71 | 67.9 | 64 | 94 | 75.7 | 49 | 16 | 7.5 | 3 | 30.2 | 30.1 | 30.1 | 0.00 |
| 3/22/2020 | 81 | 72.1 | 65 | 68 | 63.3 | 59 | 87 | 74.6 | 61 | 13 | 8.2 | 3 | 30.3 | 30.2 | 30.1 | 0.02 |
| 3/21/2020 | 77 | 71.5 | 67 | 65 | 63.6 | 61 | 87 | 76.3 | 66 | 13 | 8.7 | 6 | 30.3 | 30.3 | 30.2 | 0.07 |
| 3/20/2020 | 85 | 76.8 | 70 | 73 | 70.2 | 64 | 94 | 80.5 | 59 | 16 | 9.2 | 5 | 30.2 | 30.2 | 30.2 | 0.00 |
| 3/19/2020 | 85 | 76.9 | 73 | 71 | 70.2 | 69 | 90 | 80.2 | 63 | 18 | 11.3 | 7 | 30.2 | 30.1 | 30.1 | 0.00 |
| 3/18/2020 | 83 | 73.8 | 66 | 70 | 67.5 | 64 | 93 | 81.4 | 62 | 17 | 8.2 | 0 | 30.2 | 30.2 | 30.1 | 0.01 |
| 3/17/2020 | 82 | 74.4 | 68 | 69 | 66.8 | 66 | 90 | 77.6 | 58 | 9 | 4.7 | 0 | 30.2 | 30.2 | 30.1 | 0.00 |
| 3/16/2020 | 82 | 72.6 | 62 | 66 | 63.7 | 61 | 93 | 74.9 | 52 | 12 | 5.6 | 0 | 30.3 | 30.2 | 30.1 | 0.00 |
| 3/15/2020 | 84 | 72.6 | 66 | 67 | 63.8 | 57 | 93 | 75.7 | 47 | 9 | 4.5 | 0 | 30.3 | 30.3 | 30.2 | 0.00 |
| 3/14/2020 | 83 | 73.6 | 68 | 67 | 64.9 | 59 | 90 | 75.7 | 49 | 16 | 9.7 | 6 | 30.3 | 30.2 | 30.2 | 0.00 |
| 3/13/2020 | 83 | 72.5 | 69 | 69 | 67.0 | 65 | 93 | 83.3 | 58 | 12 | 4.8 | 0 | 30.2 | 30.1 | 30.0 | 0.00 |
| 3/12/2020 | 82 | 70.1 | 64 | 66 | 63.8 | 60 | 94 | 81.4 | 50 | 15 | 6.1 | 0 | 30.1 | 30.0 | 30.0 | 0.00 |
| 3/11/2020 | 81 | 70.2 | 65 | 65 | 63.9 | 60 | 93 | 81.1 | 58 | 14 | 5.3 | 0 | 30.2 | 30.2 | 30.0 | 0.77 |
| 3/10/2020 | 76 | 69.7 | 66 | 66 | 63.9 | 61 | 90 | 81.8 | 73 | 28 | 9.1 | 3 | 30.3 | 30.3 | 30.2 | 0.01 |
| 3/9/2020 | 78 | 69.0 | 62 | 61 | 57.7 | 55 | 84 | 68.2 | 50 | 23 | 13.1 | 7 | 30.4 | 30.3 | 30.3 | 0.00 |
| 3/8/2020 | 73 | 63.5 | 55 | 57 | 48.8 | 39 | 84 | 59.5 | 47 | 20 | 10.4 | 0 | 30.5 | 30.4 | 30.4 | 0.00 |
| 3/7/2020 | 66 | 57.9 | 52 | 38 | 32.4 | 24 | 51 | 39.6 | 20 | 17 | 9.3 | 0 | 30.5 | 30.4 | 30.4 | 0.00 |
| 3/6/2020 | 66 | 62.0 | 50 | 47 | 35.3 | 27 | 69 | 39.8 | 20 | 18 | 10.3 | 5 | 30.4 | 30.3 | 30.2 | 0.00 |
| 3/5/2020 | 72 | 61.9 | 55 | 58 | 53.7 | 45 | 90 | 75.4 | 53 | 16 | 10.7 | 5 | 30.2 | 30.0 | 29.8 | 0.13 |
| 3/4/2020 | 69 | 72.3 | 58 | 72 | 67.3 | 55 | 94 | 84.8 | 69 | 23 | 12.1 | 3 | 29.9 | 29.8 | 29.8 | 0.03 |
| 3/3/2020 | 82 | 72.1 | 59 | 71 | 67.0 | 63 | 93 | 84.6 | 62 | 12 | 5.7 | 0 | 29.9 | 29.9 | 29.8 | 0.01 |
| 3/2/2020 | 82 | 71.4 | 65 | 66 | 62.5 | 58 | 90 | 74.2 | 54 | 21 | 11.0 | 6 | 30.0 | 30.0 | 29.9 | 0.00 |
| 3/1/2020 | 79 | 62.6 | 65 | 58 | 50.6 | 44 | 86 | 66.3 | 47 | 17 | 10.8 | 0 | 30.2 | 30.2 | 30.0 | 0.00 |